Terminal Aerodrome Forecast
Issued by NWS Wilmington, OH

Current Version | Previous Version | Text Only | Print | Product List | Glossary Off
Versions: 1 2 3 4 5 6 7 8 9 10 11 12 13 14 15 16 17 18 19 20 21 22 23

000
FTUS41 KILN 242300
TAFCMH
TAF
KCMH 242323Z 2500/2524 24015G25KT P6SM BKN045
     FM250600 24012G22KT P6SM SCT045
     FM251500 25012G20KT P6SM BKN025
     FM252100 27010KT P6SM SCT030=

USA.gov is the U.S. government's official web portal to all federal, state and local government web resources and services.